This is the latest recevied weather packets stored in our database for station/object PA2JOK. If no packets are shown the sender has not sent any weather packets the latest 10 day(s).
| Time | Temp. | Humidity | Pressure | Rain* | Wind** | Luminosity | Snow |
|---|---|---|---|---|---|---|---|
| 1777899783 | 17.22° C | 75% | 1012.9 hPa | 0 mm | - | - | - |
| 1777898883 | 17.22° C | 76% | 1013 hPa | 0 mm | - | - | - |
| 1777897983 | 17.22° C | 73% | 1013 hPa | 0 mm | - | - | - |
| 1777897084 | 17.22° C | 74% | 1013 hPa | 0 mm | - | - | - |
| 1777896182 | 17.22° C | 71% | 1013 hPa | 0 mm | - | - | - |
| 1777895283 | 18.89° C | 68% | 1013.1 hPa | 0 mm | - | - | - |
| 1777894383 | 18.33° C | 67% | 1013 hPa | 0 mm | - | - | - |
| 1777893483 | 18.33° C | 73% | 1013 hPa | 0 mm | - | - | - |
| 1777892583 | 17.78° C | 75% | 1013 hPa | 0 mm | - | - | - |
| 1777891683 | 17.22° C | 78% | 1013.1 hPa | 0 mm | - | - | - |
| 1777890783 | 16.67° C | 83% | 1013 hPa | 0 mm | - | - | - |
| 1777889883 | 15.56° C | 87% | 1013.1 hPa | 0 mm | - | - | - |
| 1777888983 | 15° C | 90% | 1013.2 hPa | 0 mm | - | - | - |
| 1777888083 | 15° C | 92% | 1013.3 hPa | 0 mm | - | - | - |
| 1777887183 | 15° C | 93% | 1013.1 hPa | 0 mm | - | - | - |
| 1777886283 | 14.44° C | 94% | 1013.1 hPa | 0 mm | - | - | - |
| 1777885383 | 13.89° C | 95% | 1013.1 hPa | 0 mm | - | - | - |
| 1777884482 | 13.89° C | 96% | 1013 hPa | 0 mm | - | - | - |
| 1777883582 | 13.89° C | 97% | 1013 hPa | 0 mm | - | - | - |
| 1777882683 | 13.33° C | 98% | 1012.8 hPa | 0 mm | - | - | - |
| 1777881783 | 13.33° C | 98% | 1012.8 hPa | 0 mm | - | - | - |
| 1777880882 | 13.33° C | 98% | 1012.7 hPa | 0 mm | - | - | - |
| 1777879983 | 12.78° C | 99% | 1012.4 hPa | 0 mm | - | - | - |
| 1777879083 | 12.78° C | 99% | 1012.3 hPa | 0 mm | - | - | - |
| 1777878183 | 12.78° C | 99% | 1012.2 hPa | 0 mm | - | - | - |
* Rain latest hour (hover to see other rain measurements)
** Current wind speed in m/s (hover to see current wind gust speed)